Time;durP1;ratioP1;P1;durP2;ratioP2;P2;SDS_P1;SDS_P2;PMS_P1;PMS_P2;Temp;Humidity;BMP_temperature;BMP_pressure;BME280_temperature;BME280_humidity;BME280_pressure;Samples;Min_cycle;Max_cycle;Signal;HPM_P1;HPM_P2
2022/03/24 00:02:22;;;;;;;8.55;6.13;;;18.80;49.10;;;;;;6220103;23;20133;-87
2022/03/24 00:04:48;;;;;;;9.48;6.32;;;18.70;49.00;;;;;;6170133;23;20149;-88
2022/03/24 00:07:14;;;;;;;9.73;6.05;;;18.70;49.10;;;;;;6194731;23;20205;-88
2022/03/24 00:09:40;;;;;;;10.93;5.88;;;18.70;48.80;;;;;;6194771;23;20600;-87
2022/03/24 00:12:06;;;;;;;8.32;5.95;;;18.70;49.20;;;;;;6220170;23;20464;-89
2022/03/24 00:14:33;;;;;;;10.15;5.65;;;18.70;49.10;;;;;;6219898;23;20561;-87
2022/03/24 00:17:03;;;;;;;8.82;5.65;;;18.70;48.90;;;;;;6195112;23;20183;-87
2022/03/24 00:19:32;;;;;;;8.02;5.75;;;18.70;49.00;;;;;;6120370;23;20227;-87
2022/03/24 00:22:01;;;;;;;8.55;5.60;;;18.70;49.20;;;;;;6144682;23;20692;-88
2022/03/24 00:24:30;;;;;;;7.95;5.97;;;18.70;49.30;;;;;;6119719;23;20153;-88
2022/03/24 00:26:59;;;;;;;8.82;6.05;;;18.70;49.30;;;;;;6169371;23;20153;-88
2022/03/24 00:29:27;;;;;;;8.55;5.82;;;18.70;49.30;;;;;;6169150;23;20159;-89
2022/03/24 00:31:55;;;;;;;9.02;5.88;;;18.60;49.40;;;;;;6144489;23;20236;-88
2022/03/24 00:34:23;;;;;;;7.43;5.60;;;18.60;49.10;;;;;;6169330;23;20192;-87
2022/03/24 00:36:53;;;;;;;9.32;5.70;;;18.60;49.50;;;;;;6144816;23;20597;-88
2022/03/24 00:39:18;;;;;;;7.97;5.22;;;18.60;49.40;;;;;;6144356;23;20551;-88
2022/03/24 00:41:46;;;;;;;7.30;5.50;;;18.60;49.30;;;;;;6169821;23;20129;-88
2022/03/24 00:44:13;;;;;;;9.75;6.05;;;18.50;49.60;;;;;;6144266;23;20218;-87
2022/03/24 00:46:40;;;;;;;11.05;5.68;;;18.60;49.60;;;;;;6144555;23;20585;-87
2022/03/24 00:49:06;;;;;;;8.88;6.10;;;18.60;49.70;;;;;;6168672;23;20153;-87
2022/03/24 00:51:33;;;;;;;8.73;6.00;;;18.50;49.80;;;;;;6219859;23;20207;-87
2022/03/24 00:54:01;;;;;;;10.10;6.30;;;18.50;49.70;;;;;;6168449;23;20188;-88
2022/03/24 00:56:30;;;;;;;8.30;6.10;;;18.50;49.60;;;;;;6168858;23;20232;-87
2022/03/24 00:58:57;;;;;;;9.30;5.80;;;18.50;49.70;;;;;;6144416;23;20177;-88
2022/03/24 01:01:24;;;;;;;11.05;5.80;;;18.50;49.70;;;;;;6144147;23;20160;-88
2022/03/24 01:03:50;;;;;;;9.40;5.68;;;18.50;49.70;;;;;;6143979;23;20299;-87
2022/03/24 01:06:17;;;;;;;9.88;6.25;;;18.50;49.80;;;;;;6169539;23;20592;-87
2022/03/24 01:08:44;;;;;;;9.10;5.80;;;18.50;49.90;;;;;;6194642;23;20596;-88
2022/03/24 01:11:10;;;;;;;7.28;5.43;;;18.50;49.90;;;;;;6169506;23;20223;-87
2022/03/24 01:13:40;;;;;;;9.82;5.50;;;18.50;49.90;;;;;;6194453;23;20164;-88
2022/03/24 01:16:09;;;;;;;7.25;5.70;;;18.50;49.80;;;;;;6144029;23;20651;-89
2022/03/24 01:18:37;;;;;;;9.45;6.00;;;18.50;49.90;;;;;;6169347;23;20153;-87
2022/03/24 01:21:04;;;;;;;8.27;6.03;;;18.40;50.00;;;;;;6219269;23;20152;-88
2022/03/24 01:23:30;;;;;;;8.63;5.82;;;18.50;49.50;;;;;;6194182;23;20711;-87
2022/03/24 01:26:00;;;;;;;11.15;6.15;;;18.50;50.00;;;;;;6170129;23;20149;-87
2022/03/24 01:28:29;;;;;;;7.50;5.60;;;18.50;50.00;;;;;;6168951;23;20180;-87
2022/03/24 01:30:58;;;;;;;6.68;5.55;;;18.50;49.80;;;;;;6144246;23;20149;-88
2022/03/24 01:33:26;;;;;;;9.23;6.07;;;18.40;49.60;;;;;;6143862;23;20215;-88
2022/03/24 01:35:55;;;;;;;6.82;5.70;;;18.50;49.80;;;;;;6169365;23;20153;-89
2022/03/24 01:38:23;;;;;;;7.93;5.65;;;18.50;49.70;;;;;;6146377;23;20149;-88
2022/03/24 01:40:51;;;;;;;8.32;5.60;;;18.50;49.60;;;;;;6121530;23;20497;-86
2022/03/24 01:43:19;;;;;;;6.80;5.90;;;18.50;49.90;;;;;;6146001;23;20255;-88
2022/03/24 01:45:49;;;;;;;8.23;5.72;;;18.40;49.80;;;;;;6146230;23;20156;-87
2022/03/24 01:48:17;;;;;;;8.90;5.88;;;18.40;49.90;;;;;;6146572;23;20519;-88
2022/03/24 01:50:43;;;;;;;8.60;5.90;;;18.40;49.90;;;;;;6146218;23;20211;-87
2022/03/24 01:53:12;;;;;;;8.63;5.88;;;18.40;49.70;;;;;;6221375;23;20133;-88
2022/03/24 01:55:40;;;;;;;6.75;5.60;;;18.40;49.70;;;;;;6121823;23;20473;-86
2022/03/24 01:58:08;;;;;;;7.55;5.90;;;18.40;49.60;;;;;;6146017;23;20154;-87
2022/03/24 02:00:35;;;;;;;7.65;6.13;;;18.40;49.90;;;;;;6146167;23;20335;-87
2022/03/24 02:03:04;;;;;;;9.20;5.93;;;18.40;49.90;;;;;;6145657;23;20160;-87
2022/03/24 02:05:31;;;;;;;7.00;5.20;;;18.40;49.90;;;;;;6146205;23;20249;-87
2022/03/24 02:08:02;;;;;;;8.13;6.20;;;18.40;49.70;;;;;;6221348;23;20145;-86
2022/03/24 02:10:31;;;;;;;10.55;6.00;;;18.40;50.00;;;;;;6124376;23;20600;-88
2022/03/24 02:12:58;;;;;;;6.72;5.70;;;18.40;49.80;;;;;;6170970;23;20153;-87
2022/03/24 02:15:28;;;;;;;8.25;6.03;;;18.40;49.60;;;;;;6145956;23;20153;-87
2022/03/24 02:17:55;;;;;;;8.68;5.80;;;18.40;50.00;;;;;;6121532;23;20157;-88
2022/03/24 02:20:22;;;;;;;8.95;6.28;;;18.40;50.00;;;;;;6145935;23;20613;-88
2022/03/24 02:22:49;;;;;;;9.30;5.55;;;18.40;49.90;;;;;;6196045;23;20461;-88
2022/03/24 02:25:15;;;;;;;9.07;6.25;;;18.40;50.10;;;;;;6220997;23;20561;-87
2022/03/24 02:27:41;;;;;;;9.25;5.70;;;18.40;50.10;;;;;;6196296;23;20500;-88
2022/03/24 02:30:09;;;;;;;6.53;5.35;;;18.40;50.00;;;;;;6195925;23;20169;-88
2022/03/24 02:32:35;;;;;;;6.70;5.85;;;18.30;50.00;;;;;;6195749;23;20138;-87
2022/03/24 02:35:00;;;;;;;8.93;5.80;;;18.40;50.00;;;;;;6220833;23;20144;-88
2022/03/24 02:37:28;;;;;;;8.48;5.47;;;18.40;50.00;;;;;;6220713;23;20141;-88
2022/03/24 02:39:56;;;;;;;7.40;5.60;;;18.30;50.00;;;;;;6195725;23;20188;-87
2022/03/24 02:42:23;;;;;;;8.27;5.93;;;18.30;50.00;;;;;;6220930;23;20217;-86
2022/03/24 02:44:51;;;;;;;8.10;5.72;;;18.30;50.20;;;;;;6221005;23;20133;-88
2022/03/24 02:47:17;;;;;;;7.80;5.75;;;18.30;50.20;;;;;;6195654;23;20141;-87
2022/03/24 02:49:44;;;;;;;7.65;6.05;;;18.30;50.10;;;;;;6220609;23;20216;-88
2022/03/24 02:52:10;;;;;;;10.05;6.07;;;18.30;50.10;;;;;;6220554;23;20138;-87
2022/03/24 02:54:35;;;;;;;8.90;5.82;;;18.30;50.20;;;;;;6171195;23;20138;-88
2022/03/24 02:57:05;;;;;;;8.48;5.88;;;18.30;50.30;;;;;;6170675;23;20137;-86
2022/03/24 02:59:32;;;;;;;7.15;5.63;;;18.30;50.10;;;;;;6145406;23;20185;-87
2022/03/24 03:02:00;;;;;;;9.00;5.90;;;18.30;50.40;;;;;;6195561;23;20134;-88
2022/03/24 03:04:27;;;;;;;7.68;5.75;;;18.30;50.10;;;;;;6220800;23;20532;-88
2022/03/24 03:06:54;;;;;;;7.72;5.50;;;18.30;50.00;;;;;;6247252;23;20185;-88
2022/03/24 03:09:21;;;;;;;6.75;5.70;;;18.20;50.10;;;;;;6195778;23;20601;-87
2022/03/24 03:11:47;;;;;;;7.82;5.35;;;18.30;49.90;;;;;;6196529;23;20149;-88
2022/03/24 03:14:14;;;;;;;6.68;5.50;;;18.30;50.20;;;;;;6248307;23;20209;-87
2022/03/24 03:16:40;;;;;;;9.13;6.10;;;18.30;49.90;;;;;;6198291;23;20145;-88
2022/03/24 03:19:08;;;;;;;6.90;5.70;;;18.20;50.00;;;;;;6199189;23;20181;-87
2022/03/24 03:21:36;;;;;;;6.60;5.35;;;18.30;50.30;;;;;;6228226;23;20148;-87
2022/03/24 03:24:03;;;;;;;7.90;5.65;;;18.30;50.40;;;;;;6203546;23;20227;-87
2022/03/24 03:26:30;;;;;;;7.75;6.03;;;18.30;49.90;;;;;;6229649;23;20132;-87
2022/03/24 03:28:56;;;;;;;8.52;5.78;;;18.30;50.10;;;;;;6206356;23;20141;-87
2022/03/24 03:31:22;;;;;;;8.50;5.90;;;18.30;50.30;;;;;;6228598;23;20137;-87
2022/03/24 03:33:50;;;;;;;8.90;5.57;;;18.30;50.40;;;;;;6203613;23;20145;-88
2022/03/24 03:36:18;;;;;;;8.93;5.30;;;18.30;50.30;;;;;;6201162;23;20142;-87
2022/03/24 03:38:45;;;;;;;7.65;5.55;;;18.20;50.30;;;;;;6198939;23;20149;-87
2022/03/24 03:41:12;;;;;;;6.78;5.80;;;18.30;50.50;;;;;;6197355;23;20205;-88
2022/03/24 03:43:38;;;;;;;7.43;5.43;;;18.30;50.20;;;;;;6195914;23;20142;-89
2022/03/24 03:46:04;;;;;;;7.82;5.72;;;18.30;50.20;;;;;;6195823;23;20138;-88
2022/03/24 03:48:30;;;;;;;7.53;6.13;;;18.30;50.50;;;;;;6222586;23;20146;-88
2022/03/24 03:50:56;;;;;;;7.15;5.43;;;18.20;50.10;;;;;;6197176;23;20142;-87
2022/03/24 03:53:24;;;;;;;7.88;5.70;;;18.30;50.30;;;;;;6221755;23;20172;-86
2022/03/24 03:55:55;;;;;;;7.45;5.63;;;18.20;50.10;;;;;;6172753;23;20155;-84
2022/03/24 03:58:22;;;;;;;6.07;5.47;;;18.30;50.20;;;;;;6172515;23;20577;-85
2022/03/24 04:00:52;;;;;;;7.93;5.90;;;18.30;50.60;;;;;;6146755;23;20273;-88
2022/03/24 04:03:29;;;;;;;6.78;5.57;;;18.20;50.30;;;;;;6122892;23;20152;-87
2022/03/24 04:05:56;;;;;;;7.05;5.70;;;18.20;50.30;;;;;;6169644;23;20666;-88
2022/03/24 04:08:27;;;;;;;6.78;5.40;;;18.20;50.40;;;;;;6170748;23;20203;-88
2022/03/24 04:10:53;;;;;;;10.52;6.40;;;18.20;50.40;;;;;;6170176;23;20595;-88
2022/03/24 04:13:19;;;;;;;8.50;5.80;;;18.30;50.50;;;;;;6194929;23;20199;-87
2022/03/24 04:15:48;;;;;;;6.50;5.63;;;18.20;50.40;;;;;;6169888;23;20146;-88
2022/03/24 04:18:16;;;;;;;9.18;5.90;;;18.30;50.10;;;;;;6144686;23;20160;-88
2022/03/24 04:20:44;;;;;;;7.43;5.97;;;18.20;50.40;;;;;;6120430;23;20192;-88
2022/03/24 04:23:12;;;;;;;7.78;5.45;;;18.20;50.30;;;;;;6144735;23;20157;-88
2022/03/24 04:25:39;;;;;;;7.93;5.57;;;18.20;50.50;;;;;;6144926;23;20196;-88
2022/03/24 04:28:07;;;;;;;6.55;5.70;;;18.30;50.70;;;;;;6119988;23;20155;-87
2022/03/24 04:30:34;;;;;;;8.82;5.68;;;18.20;50.60;;;;;;6145128;23;20164;-88
2022/03/24 04:33:02;;;;;;;7.97;5.65;;;18.20;50.60;;;;;;6169285;23;20176;-87
2022/03/24 04:35:29;;;;;;;7.90;5.80;;;18.20;50.50;;;;;;6120296;23;20201;-87
2022/03/24 04:37:57;;;;;;;8.07;5.80;;;18.20;50.70;;;;;;6144775;23;20153;-87
2022/03/24 04:40:24;;;;;;;7.95;5.75;;;18.20;50.70;;;;;;6144525;23;20189;-87
2022/03/24 04:42:53;;;;;;;9.07;6.03;;;18.20;50.50;;;;;;6169218;23;20173;-87
2022/03/24 04:45:20;;;;;;;7.20;5.80;;;18.20;50.60;;;;;;6120465;23;20153;-88
2022/03/24 04:47:48;;;;;;;7.72;5.35;;;18.20;50.50;;;;;;6169115;23;20149;-87
2022/03/24 04:50:14;;;;;;;7.40;5.60;;;18.20;50.30;;;;;;6168710;23;20153;-87
2022/03/24 04:52:41;;;;;;;9.18;5.75;;;18.20;50.70;;;;;;6219554;23;20160;-87
2022/03/24 04:55:09;;;;;;;6.82;5.70;;;18.20;50.60;;;;;;6119245;23;20156;-88
2022/03/24 04:57:36;;;;;;;7.43;5.85;;;18.20;50.50;;;;;;6169094;23;20180;-88
2022/03/24 05:00:04;;;;;;;6.82;5.70;;;18.20;50.60;;;;;;6144108;23;20189;-88
2022/03/24 05:02:31;;;;;;;6.97;5.75;;;18.20;50.20;;;;;;6144499;23;20612;-87
2022/03/24 05:04:58;;;;;;;9.27;5.70;;;18.20;50.50;;;;;;6144210;23;20161;-87
2022/03/24 05:07:26;;;;;;;6.80;5.70;;;18.20;50.70;;;;;;6168388;23;20193;-88
2022/03/24 05:09:53;;;;;;;7.78;6.03;;;18.10;50.50;;;;;;6169173;23;20145;-88
2022/03/24 05:12:20;;;;;;;7.93;5.95;;;18.20;49.70;;;;;;6144478;23;20153;-87
2022/03/24 05:14:47;;;;;;;9.45;5.45;;;18.20;50.20;;;;;;6170026;23;20656;-87
2022/03/24 05:17:14;;;;;;;7.10;5.65;;;18.20;50.20;;;;;;6170322;23;20477;-88
2022/03/24 05:19:41;;;;;;;6.63;5.40;;;18.20;50.10;;;;;;6145059;23;20264;-87
2022/03/24 05:22:08;;;;;;;6.65;5.40;;;18.20;50.30;;;;;;6170519;23;20149;-87
2022/03/24 05:24:34;;;;;;;6.13;5.53;;;18.20;50.30;;;;;;6169692;23;20153;-87
2022/03/24 05:27:01;;;;;;;9.02;5.78;;;18.10;50.50;;;;;;6145114;23;20149;-87
2022/03/24 05:29:31;;;;;;;6.93;5.63;;;18.10;50.50;;;;;;6247431;23;20187;-87
2022/03/24 05:31:57;;;;;;;7.65;5.68;;;18.20;50.30;;;;;;6145368;23;20176;-88
2022/03/24 05:34:23;;;;;;;8.73;5.75;;;18.20;50.50;;;;;;6220860;23;20145;-89
2022/03/24 05:36:50;;;;;;;7.25;5.95;;;18.20;50.50;;;;;;6220636;23;20554;-89
2022/03/24 05:39:16;;;;;;;7.72;5.63;;;18.20;50.20;;;;;;6246879;23;20712;-88
2022/03/24 05:41:42;;;;;;;7.55;6.03;;;18.20;50.30;;;;;;6220365;23;20144;-87
2022/03/24 05:44:12;;;;;;;7.90;5.50;;;18.20;50.40;;;;;;6195636;23;20149;-88
2022/03/24 05:46:41;;;;;;;6.82;5.40;;;18.20;50.20;;;;;;6145322;23;20445;-88
2022/03/24 05:49:08;;;;;;;7.57;5.47;;;18.20;50.30;;;;;;6220276;23;20438;-88
2022/03/24 05:51:34;;;;;;;6.85;5.90;;;18.20;49.90;;;;;;6219715;23;20145;-87
2022/03/24 05:54:01;;;;;;;9.40;5.80;;;18.20;50.00;;;;;;6169448;23;20149;-87
2022/03/24 05:56:29;;;;;;;7.57;6.15;;;18.20;50.00;;;;;;6219155;23;20145;-88
2022/03/24 05:58:57;;;;;;;6.78;5.40;;;18.30;49.70;;;;;;6168678;23;20181;-87
2022/03/24 06:01:25;;;;;;;8.35;5.60;;;18.30;49.50;;;;;;6144316;23;20153;-88
2022/03/24 06:03:55;;;;;;;6.97;5.68;;;18.30;49.50;;;;;;6169093;23;20173;-88
2022/03/24 06:06:22;;;;;;;6.70;5.47;;;18.30;49.90;;;;;;6168698;23;20201;-88
2022/03/24 06:08:52;;;;;;;6.82;5.75;;;18.30;49.40;;;;;;6168486;23;20233;-88
2022/03/24 06:11:24;;;;;;;6.43;5.47;;;18.40;49.30;;;;;;6121529;23;20617;-88
2022/03/24 06:13:51;;;;;;;7.13;5.75;;;18.50;49.20;;;;;;6144886;23;20149;-88
2022/03/24 06:16:19;;;;;;;8.20;5.45;;;18.40;49.00;;;;;;6144091;23;20156;-89
2022/03/24 06:18:46;;;;;;;7.43;5.82;;;18.50;48.70;;;;;;6119587;23;20155;-87
2022/03/24 06:21:14;;;;;;;6.10;5.07;;;18.50;48.70;;;;;;6144454;23;20149;-89
2022/03/24 06:23:41;;;;;;;7.70;5.85;;;18.40;48.80;;;;;;6145923;23;20152;-87
2022/03/24 06:26:08;;;;;;;6.57;5.50;;;18.50;48.70;;;;;;6170363;23;20153;-88
2022/03/24 06:28:36;;;;;;;5.90;5.15;;;18.60;48.20;;;;;;6170191;23;20601;-88
2022/03/24 06:31:03;;;;;;;9.32;5.30;;;18.60;48.10;;;;;;6170704;23;20153;-87
2022/03/24 06:33:30;;;;;;;5.90;5.30;;;18.70;48.00;;;;;;6145877;23;20146;-88
2022/03/24 06:35:58;;;;;;;6.65;5.22;;;18.70;47.90;;;;;;6169985;23;20231;-87
2022/03/24 06:38:24;;;;;;;6.40;5.38;;;18.70;47.60;;;;;;6145575;23;20149;-88
2022/03/24 06:40:51;;;;;;;6.45;5.60;;;18.80;47.60;;;;;;6169997;23;20189;-88
2022/03/24 06:43:18;;;;;;;5.72;5.15;;;18.80;47.70;;;;;;6170067;23;20284;-88
2022/03/24 06:45:44;;;;;;;6.15;5.20;;;18.80;47.50;;;;;;6145831;23;20235;-88
2022/03/24 06:48:11;;;;;;;6.53;5.43;;;18.70;47.80;;;;;;6145449;23;20585;-88
2022/03/24 06:50:38;;;;;;;6.25;5.25;;;18.80;47.50;;;;;;6145466;23;20160;-88
2022/03/24 06:53:04;;;;;;;5.90;5.30;;;18.80;46.90;;;;;;6145509;23;20469;-87
2022/03/24 06:55:31;;;;;;;7.53;5.53;;;18.90;47.40;;;;;;6195614;23;20153;-87
2022/03/24 06:57:57;;;;;;;6.60;5.65;;;18.80;47.10;;;;;;6170823;23;20187;-88
2022/03/24 07:00:23;;;;;;;6.13;5.13;;;18.80;47.10;;;;;;6220672;23;20309;-87
2022/03/24 07:02:49;;;;;;;6.82;5.35;;;18.80;47.00;;;;;;6195817;23;20145;-87
2022/03/24 07:05:15;;;;;;;7.18;5.50;;;18.80;47.30;;;;;;6220971;23;20664;-88
2022/03/24 07:07:41;;;;;;;6.30;5.57;;;18.90;47.00;;;;;;6196908;23;20233;-87
2022/03/24 07:10:07;;;;;;;7.70;5.30;;;18.80;47.50;;;;;;6220620;23;20146;-87
2022/03/24 07:12:34;;;;;;;6.78;5.35;;;18.80;47.50;;;;;;6220757;23;20212;-87
2022/03/24 07:15:00;;;;;;;6.30;4.90;;;18.90;47.60;;;;;;6171286;23;20149;-87
2022/03/24 07:17:26;;;;;;;6.22;5.63;;;18.90;47.00;;;;;;6195796;23;20161;-87
2022/03/24 07:19:51;;;;;;;6.10;5.00;;;18.80;47.00;;;;;;6195884;23;20201;-88
2022/03/24 07:22:17;;;;;;;5.88;5.20;;;18.90;46.90;;;;;;6220743;23;20137;-87
2022/03/24 07:24:43;;;;;;;7.03;5.20;;;18.90;47.10;;;;;;6195818;23;20146;-88
2022/03/24 07:27:10;;;;;;;6.28;5.07;;;19.00;46.70;;;;;;6220229;23;20562;-88
2022/03/24 07:29:35;;;;;;;6.50;5.70;;;18.90;46.90;;;;;;6195971;23;20126;-88
2022/03/24 07:32:01;;;;;;;7.45;5.63;;;19.00;46.80;;;;;;6170394;23;20446;-87
2022/03/24 07:34:26;;;;;;;6.60;5.15;;;19.00;46.90;;;;;;6220513;23;20181;-87
2022/03/24 07:36:52;;;;;;;7.47;5.53;;;19.00;46.70;;;;;;6226830;23;20140;-88
2022/03/24 07:39:18;;;;;;;7.35;4.93;;;18.90;47.40;;;;;;6202811;23;20620;-87
2022/03/24 07:41:47;;;;;;;6.45;5.22;;;18.90;47.40;;;;;;6201868;23;20527;-87
2022/03/24 07:44:13;;;;;;;6.90;5.78;;;18.90;47.50;;;;;;6176077;23;20208;-87
2022/03/24 07:46:38;;;;;;;8.00;5.72;;;18.80;47.70;;;;;;6202430;23;20152;-87
2022/03/24 07:49:04;;;;;;;8.73;5.40;;;18.80;47.90;;;;;;6202508;23;20557;-86
2022/03/24 07:51:32;;;;;;;6.88;5.68;;;18.80;47.10;;;;;;6176633;23;20159;-87
2022/03/24 07:54:02;;;;;;;9.93;5.70;;;18.90;46.30;;;;;;6203815;23;20130;-85
2022/03/24 07:56:29;;;;;;;7.50;5.35;;;18.90;46.60;;;;;;6204505;23;20502;-85
2022/03/24 07:58:59;;;;;;;8.07;5.70;;;19.00;46.50;;;;;;6181105;23;20144;-85
2022/03/24 08:01:31;;;;;;;11.20;5.25;;;19.00;46.80;;;;;;6178790;23;20628;-85
2022/03/24 08:03:58;;;;;;;13.95;5.95;;;18.90;46.30;;;;;;6203985;23;20536;-85
2022/03/24 08:06:24;;;;;;;10.90;5.93;;;19.00;46.70;;;;;;6206376;23;20193;-85
2022/03/24 08:08:55;;;;;;;13.77;5.65;;;19.00;46.80;;;;;;6182042;23;20144;-85
2022/03/24 08:11:22;;;;;;;12.68;5.53;;;19.00;46.70;;;;;;6155861;23;20153;-85
2022/03/24 08:13:54;;;;;;;10.15;5.60;;;19.00;46.60;;;;;;6183253;23;20156;-86
2022/03/24 08:16:24;;;;;;;12.65;5.22;;;19.10;46.40;;;;;;6133370;23;20209;-84
2022/03/24 08:18:53;;;;;;;7.80;5.00;;;19.10;46.10;;;;;;6131881;23;20209;-85
2022/03/24 08:21:23;;;;;;;7.72;4.97;;;19.10;46.10;;;;;;6206497;23;20208;-86
2022/03/24 08:23:58;;;;;;;9.07;5.20;;;19.10;46.40;;;;;;6157355;23;20149;-85
2022/03/24 08:26:28;;;;;;;6.28;5.22;;;19.10;43.90;;;;;;6234055;23;20202;-87
2022/03/24 08:28:56;;;;;;;8.25;5.35;;;19.10;44.90;;;;;;6234268;23;20129;-87
2022/03/24 08:31:23;;;;;;;7.82;5.15;;;19.10;45.40;;;;;;6183930;23;20148;-87
2022/03/24 08:33:50;;;;;;;7.88;4.80;;;19.10;45.50;;;;;;6206198;23;20160;-86
2022/03/24 08:36:22;;;;;;;6.70;4.95;;;19.10;45.40;;;;;;6205790;23;20137;-87
2022/03/24 08:38:53;;;;;;;12.90;5.57;;;19.20;45.30;;;;;;6182239;23;20149;-86
2022/03/24 08:41:18;;;;;;;7.70;5.55;;;19.10;45.70;;;;;;6156845;23;20204;-86
2022/03/24 08:43:47;;;;;;;10.32;5.55;;;19.20;45.20;;;;;;6181707;23;20150;-86
2022/03/24 08:46:13;;;;;;;6.85;5.30;;;19.20;46.50;;;;;;6179569;23;20161;-86
2022/03/24 08:48:40;;;;;;;8.82;4.93;;;19.10;46.00;;;;;;6181367;23;20537;-86
2022/03/24 08:51:09;;;;;;;6.78;5.20;;;19.10;45.70;;;;;;6205898;23;20138;-86
2022/03/24 08:53:40;;;;;;;8.52;5.40;;;19.10;46.40;;;;;;6231012;23;20138;-86
2022/03/24 08:56:07;;;;;;;12.10;5.35;;;19.00;46.70;;;;;;6156291;23;20153;-86
2022/03/24 08:58:33;;;;;;;8.02;5.50;;;18.90;46.40;;;;;;6206636;23;20164;-86
2022/03/24 09:00:58;;;;;;;7.43;5.68;;;19.00;45.80;;;;;;6207189;23;20173;-86
2022/03/24 09:03:28;;;;;;;11.43;5.40;;;19.00;45.90;;;;;;6180964;23;20145;-87
2022/03/24 09:05:54;;;;;;;6.20;5.40;;;19.00;45.30;;;;;;6181609;23;20197;-88
2022/03/24 09:08:20;;;;;;;7.88;5.20;;;19.00;45.50;;;;;;6181846;23;20426;-87
2022/03/24 09:10:50;;;;;;;9.75;5.30;;;19.00;46.50;;;;;;6204231;23;20553;-86
2022/03/24 09:13:16;;;;;;;7.97;5.22;;;18.90;47.20;;;;;;6228712;23;20129;-87
2022/03/24 09:15:44;;;;;;;7.30;5.30;;;18.90;45.70;;;;;;6236132;23;20189;-87
2022/03/24 09:18:14;;;;;;;8.43;5.50;;;19.00;45.80;;;;;;6205847;23;20157;-86
2022/03/24 09:20:40;;;;;;;6.82;5.15;;;19.00;45.30;;;;;;6201914;23;20189;-86
2022/03/24 09:23:13;;;;;;;7.35;4.90;;;19.10;45.60;;;;;;6201330;23;20143;-86
2022/03/24 09:25:41;;;;;;;6.65;5.40;;;19.10;46.00;;;;;;6178937;23;20216;-86
2022/03/24 09:28:07;;;;;;;7.78;5.22;;;19.00;45.80;;;;;;6179633;23;20145;-86
2022/03/24 09:30:37;;;;;;;8.80;5.47;;;19.00;45.70;;;;;;6203055;23;20157;-85
2022/03/24 09:33:04;;;;;;;7.47;5.47;;;19.00;45.40;;;;;;6177434;23;20176;-86
2022/03/24 09:35:35;;;;;;;7.00;5.00;;;19.00;46.40;;;;;;6174738;23;20141;-86
2022/03/24 09:38:02;;;;;;;8.43;5.10;;;19.00;45.40;;;;;;6125171;23;20153;-86
2022/03/24 09:40:28;;;;;;;7.15;5.18;;;19.00;45.50;;;;;;6224376;23;20188;-85
2022/03/24 09:42:54;;;;;;;8.10;4.95;;;19.00;45.30;;;;;;6175967;23;20569;-86
2022/03/24 09:45:22;;;;;;;7.50;5.38;;;19.10;46.50;;;;;;6198035;23;20557;-85
2022/03/24 09:47:48;;;;;;;6.90;5.28;;;19.10;44.50;;;;;;6174138;23;20161;-85
2022/03/24 09:50:14;;;;;;;6.45;5.25;;;19.00;45.40;;;;;;6181513;23;20200;-85
2022/03/24 09:52:40;;;;;;;7.22;5.47;;;19.10;45.20;;;;;;6207765;23;20508;-86
2022/03/24 09:55:06;;;;;;;6.88;4.70;;;19.10;44.80;;;;;;6206904;23;20134;-85
2022/03/24 09:57:33;;;;;;;7.35;5.43;;;19.20;44.90;;;;;;6207606;23;20136;-85
2022/03/24 10:00:00;;;;;;;10.20;5.70;;;19.20;44.30;;;;;;6156933;23;20185;-85
2022/03/24 10:02:28;;;;;;;9.75;5.40;;;19.20;45.70;;;;;;6178358;23;20192;-85
2022/03/24 10:05:00;;;;;;;8.80;5.22;;;19.20;45.30;;;;;;6182743;23;20141;-84
2022/03/24 10:07:26;;;;;;;9.95;4.97;;;19.20;44.50;;;;;;6181633;23;20215;-84
2022/03/24 10:09:57;;;;;;;7.53;5.22;;;19.20;44.20;;;;;;6226296;23;20461;-85
2022/03/24 10:12:24;;;;;;;6.50;5.60;;;19.20;44.80;;;;;;6151046;23;20154;-86
2022/03/24 10:15:07;;;;;;;6.63;5.20;;;19.20;45.00;;;;;;6201136;23;20134;-84
2022/03/24 10:17:34;;;;;;;8.13;5.30;;;19.20;45.70;;;;;;6199369;23;20204;-85
2022/03/24 10:20:05;;;;;;;9.00;5.55;;;19.20;43.70;;;;;;6174156;23;20185;-85
2022/03/24 10:22:32;;;;;;;5.30;4.80;;;19.20;44.30;;;;;;6151507;23;20156;-84
2022/03/24 10:25:01;;;;;;;6.03;5.15;;;19.30;44.20;;;;;;6174434;23;20153;-85
2022/03/24 10:27:29;;;;;;;7.07;5.43;;;19.20;44.20;;;;;;6199132;23;20130;-86
2022/03/24 10:29:57;;;;;;;8.07;5.00;;;19.30;44.80;;;;;;6197043;23;20169;-84
2022/03/24 10:32:28;;;;;;;7.63;5.18;;;19.20;44.50;;;;;;6198351;23;20159;-85
2022/03/24 10:34:56;;;;;;;9.43;5.45;;;19.20;46.00;;;;;;6197662;23;20126;-84
2022/03/24 10:37:24;;;;;;;7.45;5.15;;;19.20;45.70;;;;;;6225114;23;20554;-85
2022/03/24 10:40:03;;;;;;;6.80;5.25;;;19.20;44.70;;;;;;6225361;23;20166;-84
2022/03/24 10:42:30;;;;;;;10.07;5.40;;;19.20;45.30;;;;;;6133392;23;20158;-85
2022/03/24 10:45:17;;;;;;;13.30;5.75;;;19.30;44.70;;;;;;6133875;23;20210;-86
2022/03/24 10:47:54;;;;;;;6.72;5.40;;;19.20;45.70;;;;;;6133773;23;20159;-86
2022/03/24 10:50:37;;;;;;;7.25;5.25;;;19.20;44.70;;;;;;6132002;23;20136;-85
2022/03/24 10:53:15;;;;;;;7.03;5.28;;;19.30;44.80;;;;;;6133308;23;20158;-86
2022/03/24 10:56:04;;;;;;;8.02;5.13;;;19.30;45.70;;;;;;6132706;23;20149;-85
2022/03/24 10:58:38;;;;;;;8.10;5.40;;;19.30;44.40;;;;;;6131022;23;20154;-85
2022/03/24 11:01:07;;;;;;;6.95;5.15;;;19.30;44.90;;;;;;6133224;23;20207;-85
2022/03/24 11:03:33;;;;;;;7.35;5.18;;;19.30;45.00;;;;;;6131515;23;20475;-85
2022/03/24 11:06:15;;;;;;;5.97;5.05;;;19.30;44.70;;;;;;6105866;23;20223;-86
2022/03/24 11:08:42;;;;;;;7.50;5.28;;;19.30;44.00;;;;;;6133247;23;20666;-85
2022/03/24 11:11:13;;;;;;;7.00;5.32;;;19.40;45.10;;;;;;6131750;23;20218;-86
2022/03/24 11:13:44;;;;;;;8.00;4.88;;;19.30;44.50;;;;;;6111358;23;20153;-85
2022/03/24 11:16:11;;;;;;;7.30;5.00;;;19.40;44.90;;;;;;6146068;23;20149;-86
2022/03/24 11:18:37;;;;;;;7.10;5.20;;;19.30;44.80;;;;;;6171193;23;20596;-86
2022/03/24 11:21:20;;;;;;;6.15;5.28;;;19.30;45.00;;;;;;6195775;23;20165;-85
2022/03/24 11:23:46;;;;;;;7.15;4.63;;;19.30;44.00;;;;;;6224156;23;20133;-86
2022/03/24 11:26:16;;;;;;;6.25;5.25;;;19.30;44.60;;;;;;6248601;23;20130;-86
2022/03/24 11:28:46;;;;;;;7.78;5.53;;;19.30;44.90;;;;;;6146093;23;20156;-86
2022/03/24 11:31:13;;;;;;;6.00;5.20;;;19.30;44.80;;;;;;6197786;23;20153;-85
2022/03/24 11:33:46;;;;;;;9.20;5.05;;;19.30;44.80;;;;;;6199256;23;20136;-86
2022/03/24 11:36:12;;;;;;;9.43;5.60;;;19.30;44.70;;;;;;6197092;23;20197;-86
2022/03/24 11:38:38;;;;;;;7.50;5.53;;;19.30;44.90;;;;;;6195373;23;20603;-85
2022/03/24 11:41:06;;;;;;;8.88;5.18;;;19.30;45.30;;;;;;6170748;23;20181;-86
2022/03/24 11:43:33;;;;;;;5.68;5.03;;;19.20;45.70;;;;;;6220040;23;20436;-85
2022/03/24 11:46:10;;;;;;;8.25;5.05;;;19.10;45.80;;;;;;6219992;23;20604;-86
2022/03/24 11:48:37;;;;;;;7.13;5.18;;;19.20;45.70;;;;;;6194866;23;20137;-85
2022/03/24 11:51:04;;;;;;;7.97;5.25;;;19.20;45.70;;;;;;6170532;23;20603;-86
2022/03/24 11:53:35;;;;;;;7.22;5.30;;;19.10;45.70;;;;;;6170685;23;20193;-86
2022/03/24 11:56:11;;;;;;;7.30;5.13;;;19.10;46.40;;;;;;6170869;23;20141;-86
2022/03/24 11:58:45;;;;;;;6.05;5.00;;;19.10;45.70;;;;;;6195028;23;20136;-86
2022/03/24 12:01:33;;;;;;;6.47;5.53;;;19.10;45.80;;;;;;6197022;23;20171;-85
2022/03/24 12:04:10;;;;;;;6.10;4.90;;;19.10;45.80;;;;;;6200528;23;20188;-85
2022/03/24 12:06:53;;;;;;;6.80;5.68;;;19.10;46.00;;;;;;6219513;23;20192;-86
2022/03/24 12:09:22;;;;;;;6.22;5.50;;;19.20;46.00;;;;;;6170688;23;20148;-85
2022/03/24 12:11:53;;;;;;;6.13;5.18;;;19.10;46.10;;;;;;6171125;23;20227;-84
2022/03/24 12:14:24;;;;;;;5.97;5.18;;;19.20;45.80;;;;;;6197639;23;20157;-86
2022/03/24 12:16:51;;;;;;;6.75;5.15;;;19.10;45.50;;;;;;6172278;23;20565;-86
2022/03/24 12:19:38;;;;;;;7.03;5.40;;;19.10;45.60;;;;;;6172168;23;20177;-86
2022/03/24 12:22:32;;;;;;;5.82;5.00;;;19.20;46.10;;;;;;6196132;23;20156;-88
2022/03/24 12:25:18;;;;;;;6.57;5.60;;;19.20;45.90;;;;;;6196912;23;20526;-88
2022/03/24 12:28:03;;;;;;;5.90;5.22;;;19.30;45.20;;;;;;6177923;23;20263;-89
2022/03/24 12:30:50;;;;;;;6.53;5.38;;;19.20;45.20;;;;;;6150841;23;20149;-87
2022/03/24 12:33:18;;;;;;;7.65;5.15;;;19.20;44.70;;;;;;6223738;23;20465;-87
2022/03/24 12:35:55;;;;;;;8.30;5.97;;;19.30;44.80;;;;;;6173437;23;20145;-88
2022/03/24 12:38:43;;;;;;;6.72;5.47;;;19.40;45.10;;;;;;6162826;23;20157;-85
2022/03/24 12:41:17;;;;;;;8.93;5.07;;;19.40;45.00;;;;;;6162675;23;20163;-86
2022/03/24 12:43:49;;;;;;;6.38;5.35;;;19.40;44.60;;;;;;6190029;23;20140;-87
2022/03/24 12:46:43;;;;;;;6.35;5.00;;;19.40;44.60;;;;;;6165387;23;20611;-85
2022/03/24 12:49:31;;;;;;;8.85;5.75;;;19.40;44.80;;;;;;6135778;23;20207;-90
2022/03/24 12:52:10;;;;;;;7.55;5.45;;;19.40;44.70;;;;;;5986272;24;20242;-86
2022/03/24 12:55:02;;;;;;;6.38;5.43;;;19.40;45.40;;;;;;5986117;24;20198;-90